Time;durP1;ratioP1;P1;durP2;ratioP2;P2;SDS_P1;SDS_P2;PMS_P1;PMS_P2;Temp;Humidity;BMP_temperature;BMP_pressure;BME280_temperature;BME280_humidity;BME280_pressure;Samples;Min_cycle;Max_cycle;Signal;HPM_P1;HPM_P2
2022/08/14 00:02:01;;;;;;;8.17;7.37;;;;;;;16.57;82.60;97285.06;7618691;23;20216;-70
2022/08/14 00:05:07;;;;;;;8.80;7.93;;;;;;;16.57;82.65;97282.41;7593066;23;20212;-70
2022/08/14 00:08:12;;;;;;;9.00;8.07;;;;;;;16.58;82.54;97277.91;7619128;23;20676;-71
2022/08/14 00:11:15;;;;;;;9.97;8.27;;;;;;;16.58;82.85;97283.22;7591667;23;20208;-71
2022/08/14 00:14:18;;;;;;;9.67;8.10;;;;;;;16.59;82.97;97275.06;7590729;23;20215;-71
2022/08/14 00:17:20;;;;;;;8.30;7.50;;;;;;;16.56;83.06;97270.13;7619381;23;20578;-71
2022/08/14 00:20:31;;;;;;;8.40;7.53;;;;;;;16.55;83.09;97271.13;7592735;23;20290;-71
2022/08/14 00:23:43;;;;;;;9.00;8.10;;;;;;;16.55;83.28;97278.28;7617667;23;20295;-71
2022/08/14 00:26:57;;;;;;;8.83;8.00;;;;;;;16.58;83.33;97276.06;7619562;23;20589;-71
2022/08/14 00:30:09;;;;;;;10.17;8.40;;;;;;;16.65;83.53;97268.28;7619065;23;20207;-70
2022/08/14 00:33:11;;;;;;;8.90;8.07;;;;;;;16.75;83.46;97271.59;7592971;23;20276;-71
2022/08/14 00:36:17;;;;;;;9.20;8.30;;;;;;;16.88;83.29;97271.00;7593479;23;20184;-71
2022/08/14 00:39:39;;;;;;;8.30;7.50;;;;;;;16.95;83.13;97264.00;7618186;23;20518;-71
2022/08/14 00:42:44;;;;;;;10.27;7.53;;;;;;;17.01;83.01;97265.13;7593623;23;20683;-71
2022/08/14 00:46:06;;;;;;;8.63;7.77;;;;;;;17.09;83.18;97260.59;7595244;23;20736;-71
2022/08/14 00:49:31;;;;;;;8.50;7.43;;;;;;;17.18;83.06;97256.06;7618663;23;20219;-71
2022/08/14 00:52:46;;;;;;;8.60;7.80;;;;;;;17.25;82.93;97259.69;7594717;23;20212;-71
2022/08/14 00:55:56;;;;;;;8.60;7.70;;;;;;;17.32;82.96;97257.97;7592493;23;20212;-71
2022/08/14 00:58:58;;;;;;;9.33;7.90;;;;;;;17.35;83.11;97265.66;7590862;23;20213;-71
2022/08/14 01:02:04;;;;;;;7.63;6.93;;;;;;;17.40;83.03;97255.25;7589814;23;20251;-70
2022/08/14 01:05:22;;;;;;;7.47;6.77;;;;;;;17.48;82.86;97262.38;7591073;23;20224;-71
2022/08/14 01:08:27;;;;;;;7.97;7.17;;;;;;;17.56;82.91;97257.84;7592059;23;20703;-71
2022/08/14 01:11:50;;;;;;;8.67;7.77;;;;;;;17.63;82.59;97266.81;7616569;23;20209;-71
2022/08/14 01:15:04;;;;;;;8.30;7.33;;;;;;;17.64;82.33;97267.66;7591162;23;20211;-71
2022/08/14 01:21:40;;;;;;;8.83;7.93;;;;;;;17.76;82.24;97258.22;7544110;23;20651;-71
2022/08/14 01:24:53;;;;;;;8.00;7.20;;;;;;;17.83;82.09;97261.84;7543932;23;20216;-71
2022/08/14 01:27:57;;;;;;;8.17;7.30;;;;;;;17.92;81.93;97259.94;7545066;23;20209;-72
2022/08/14 01:31:01;;;;;;;8.90;7.97;;;;;;;18.00;81.91;97263.38;7542435;23;20296;-71
2022/08/14 01:34:06;;;;;;;8.40;7.50;;;;;;;18.08;81.59;97265.13;7542528;23;20322;-70
2022/08/14 01:37:28;;;;;;;7.67;6.97;;;;;;;18.17;81.13;97263.25;7543452;23;20225;-71
2022/08/14 01:40:32;;;;;;;8.63;7.73;;;;;;;18.21;81.21;97261.84;7543368;23;20281;-70
2022/08/14 01:44:11;;;;;;;7.70;6.90;;;;;;;18.22;80.80;97261.69;7541194;23;20222;-71
2022/08/14 01:47:33;;;;;;;7.80;7.10;;;;;;;18.29;80.85;97257.25;7542111;23;20214;-71
2022/08/14 01:50:38;;;;;;;8.10;7.30;;;;;;;18.41;80.16;97260.31;7541774;23;20233;-71
2022/08/14 01:53:49;;;;;;;7.37;6.67;;;;;;;18.48;79.96;97257.72;7542491;23;20217;-71
2022/08/14 01:56:57;;;;;;;7.90;7.10;;;;;;;18.55;79.58;97261.34;7543954;23;20760;-71
2022/08/14 01:59:59;;;;;;;7.13;6.50;;;;;;;18.59;79.52;97254.66;7544174;23;20237;-71
2022/08/14 02:03:06;;;;;;;7.53;6.80;;;;;;;18.58;79.63;97251.16;7540802;23;20206;-70
2022/08/14 02:06:10;;;;;;;7.27;6.57;;;;;;;18.63;79.15;97259.47;7543240;23;20690;-72
2022/08/14 02:09:36;;;;;;;7.87;6.53;;;;;;;18.65;79.00;97253.94;7543053;23;20257;-71
2022/08/14 02:12:40;;;;;;;7.10;6.40;;;;;;;18.68;78.50;97258.88;7542494;23;20604;-71
2022/08/14 02:15:44;;;;;;;8.03;6.37;;;;;;;18.73;78.18;97252.00;7541906;23;20662;-71
2022/08/14 02:18:49;;;;;;;7.23;6.53;;;;;;;18.76;77.08;97256.16;7555164;23;20220;-71
2022/08/14 02:21:56;;;;;;;6.67;6.07;;;;;;;18.82;77.22;97252.72;7591271;23;20215;-71
2022/08/14 02:25:04;;;;;;;7.83;6.30;;;;;;;18.84;76.93;97253.38;7615407;23;20266;-71
2022/08/14 02:28:07;;;;;;;6.83;6.23;;;;;;;18.85;77.13;97244.34;7590080;23;21027;-71
2022/08/14 02:31:32;;;;;;;6.13;5.63;;;;;;;18.84;76.91;97247.19;7615971;23;20549;-71
2022/08/14 02:34:44;;;;;;;6.87;6.27;;;;;;;18.84;76.83;97245.34;7615012;23;20212;-71
2022/08/14 02:37:48;;;;;;;6.77;5.77;;;;;;;18.85;76.55;97243.50;7616694;23;20227;-71
2022/08/14 02:40:50;;;;;;;7.57;6.73;;;;;;;18.86;76.29;97243.31;7590199;23;20216;-71
2022/08/14 02:43:52;;;;;;;6.70;6.10;;;;;;;18.88;75.88;97246.63;7615138;23;20224;-71
2022/08/14 02:47:02;;;;;;;7.10;6.40;;;;;;;18.90;75.98;97255.28;7589835;23;20665;-71
2022/08/14 02:50:16;;;;;;;6.67;6.07;;;;;;;18.89;76.08;97250.13;7589773;23;20212;-72
2022/08/14 02:53:18;;;;;;;6.83;6.23;;;;;;;18.85;76.32;97260.38;7616250;23;20204;-71
2022/08/14 02:56:21;;;;;;;6.80;6.13;;;;;;;18.83;76.49;97246.38;7615250;23;20223;-70
2022/08/14 02:59:43;;;;;;;7.17;6.47;;;;;;;18.83;76.34;97257.06;7614081;23;20205;-71
2022/08/14 03:02:49;;;;;;;6.70;6.10;;;;;;;18.83;76.62;97248.19;7615209;23;20266;-70
2022/08/14 03:06:00;;;;;;;7.00;6.30;;;;;;;18.79;77.04;97239.72;7590028;23;20208;-71
2022/08/14 03:09:03;;;;;;;7.13;6.43;;;;;;;18.79;77.03;97248.56;7614630;23;20212;-71
2022/08/14 03:12:05;;;;;;;6.90;6.20;;;;;;;18.84;76.82;97253.38;7614290;23;20176;-71
2022/08/14 03:15:12;;;;;;;6.80;6.20;;;;;;;18.87;76.51;97257.50;7564359;23;20188;-71
2022/08/14 03:18:17;;;;;;;6.50;5.90;;;;;;;18.88;76.69;97256.47;7615049;23;20832;-72
2022/08/14 03:21:32;;;;;;;7.60;6.80;;;;;;;18.86;76.51;97248.69;7614707;23;20216;-71
2022/08/14 03:24:38;;;;;;;7.57;6.87;;;;;;;18.92;76.14;97258.63;7588803;23;20223;-71
2022/08/14 03:27:41;;;;;;;7.27;6.60;;;;;;;18.94;76.15;97256.59;7589266;23;20223;-71
2022/08/14 03:31:00;;;;;;;7.03;6.43;;;;;;;18.93;76.10;97260.28;7590590;23;20293;-71
2022/08/14 03:34:03;;;;;;;7.00;6.40;;;;;;;18.96;76.02;97259.91;7588905;23;20263;-71
2022/08/14 03:37:11;;;;;;;7.27;6.57;;;;;;;18.99;75.87;97248.00;7613810;23;20645;-70
2022/08/14 03:40:36;;;;;;;7.30;6.60;;;;;;;19.03;75.86;97254.66;7614345;23;20219;-70
2022/08/14 03:43:40;;;;;;;7.50;6.73;;;;;;;19.01;76.00;97251.31;7614200;23;20669;-71
2022/08/14 03:46:42;;;;;;;7.10;6.30;;;;;;;18.95;76.55;97258.25;7614498;23;20240;-71
2022/08/14 03:49:55;;;;;;;6.37;5.77;;;;;;;18.97;76.47;97255.38;7588328;23;20212;-71
2022/08/14 03:53:00;;;;;;;7.40;6.70;;;;;;;18.96;76.24;97251.91;7614132;23;20236;-69
2022/08/14 03:56:05;;;;;;;7.80;7.00;;;;;;;18.94;76.21;97250.41;7588659;23;20668;-71
2022/08/14 03:59:10;;;;;;;6.83;6.20;;;;;;;18.95;76.51;97247.56;7589271;23;20549;-71
2022/08/14 04:02:20;;;;;;;6.83;6.23;;;;;;;18.97;76.38;97250.84;7614390;23;20216;-71
2022/08/14 04:05:37;;;;;;;7.33;6.63;;;;;;;18.96;76.47;97248.38;7614558;23;20684;-71
2022/08/14 04:08:51;;;;;;;7.50;6.80;;;;;;;18.93;76.55;97249.59;7614544;23;20212;-72
2022/08/14 04:11:58;;;;;;;8.30;6.90;;;;;;;18.94;76.51;97250.41;7614750;23;20220;-70
2022/08/14 04:15:04;;;;;;;7.17;6.50;;;;;;;18.96;76.46;97251.91;7587666;23;20255;-71
2022/08/14 04:18:08;;;;;;;8.50;6.77;;;;;;;18.97;76.48;97250.84;7589459;23;20197;-71
2022/08/14 04:21:14;;;;;;;7.87;7.13;;;;;;;18.97;76.69;97253.53;7614262;23;20216;-72
2022/08/14 04:24:17;;;;;;;7.27;6.67;;;;;;;18.98;77.09;97243.66;7613906;23;20296;-73
2022/08/14 04:27:20;;;;;;;7.23;6.53;;;;;;;19.12;77.35;97242.81;7615218;23;20180;-72
2022/08/14 04:30:27;;;;;;;8.02;7.22;;;;;;;19.25;77.07;97242.16;7590156;23;20463;-70
2022/08/14 04:33:35;;;;;;;7.50;6.80;;;;;;;19.12;77.17;97246.31;7615453;23;20217;-72
2022/08/14 04:43:34;;;;;;;8.10;7.30;;;;;;;19.06;77.58;97255.09;7616408;23;20209;-71
2022/08/14 04:43:37;;;;;;;7.90;7.20;;;;;;;19.01;78.39;97245.97;7591558;23;20219;-72
2022/08/14 04:48:11;;;;;;;8.27;6.93;;;;;;;18.93;78.83;97246.06;7591811;23;20557;-72
2022/08/14 04:50:04;;;;;;;8.32;7.63;;;;;;;19.27;78.05;97251.63;7622079;23;20879;-71
2022/08/14 04:53:06;;;;;;;8.07;7.37;;;;;;;19.14;78.26;97251.50;7615289;23;20545;-73
2022/08/14 04:56:21;;;;;;;8.13;7.40;;;;;;;19.10;78.70;97247.53;7591471;23;20351;-73
2022/08/14 04:59:35;;;;;;;8.57;7.53;;;;;;;19.02;78.83;97247.63;7592631;23;20303;-71
2022/08/14 05:02:44;;;;;;;8.03;7.13;;;;;;;19.00;78.88;97249.66;7615636;23;20217;-72
2022/08/14 05:05:51;;;;;;;7.77;6.97;;;;;;;19.01;79.07;97244.13;7590136;23;20212;-71
2022/08/14 05:08:55;;;;;;;8.40;7.57;;;;;;;19.01;79.13;97238.78;7616132;23;20263;-72
2022/08/14 05:12:01;;;;;;;8.70;7.40;;;;;;;19.04;79.10;97241.09;7590185;23;20207;-71
2022/08/14 05:15:28;;;;;;;7.77;7.07;;;;;;;19.04;78.95;97241.09;7618128;23;20264;-72
2022/08/14 05:18:36;;;;;;;8.93;8.10;;;;;;;19.05;79.02;97226.69;7590868;23;20582;-72
2022/08/14 05:21:58;;;;;;;8.70;7.90;;;;;;;19.05;79.10;97224.03;7590280;23;20299;-72
2022/08/14 05:25:18;;;;;;;8.73;8.00;;;;;;;19.55;77.73;97227.69;7614353;23;20870;-72
2022/08/14 05:28:24;;;;;;;8.43;7.67;;;;;;;19.32;78.79;97219.78;7623938;23;20265;-73
2022/08/14 05:31:27;;;;;;;8.55;7.85;;;;;;;19.70;77.41;97219.59;7615274;23;20448;-73
2022/08/14 05:34:41;;;;;;;8.57;7.80;;;;;;;19.43;78.49;97213.94;7615256;23;20677;-72
2022/08/14 05:37:47;;;;;;;8.60;7.80;;;;;;;19.46;79.00;97213.59;7590618;23;20222;-72
2022/08/14 05:40:50;;;;;;;8.50;7.70;;;;;;;19.51;79.25;97221.88;7615419;23;20212;-72
2022/08/14 05:43:53;;;;;;;9.30;8.50;;;;;;;19.56;79.71;97221.31;7615512;23;20212;-72
2022/08/14 05:46:56;;;;;;;8.90;8.00;;;;;;;19.61;79.28;97213.53;7616682;23;20232;-72
2022/08/14 05:49:58;;;;;;;9.17;8.27;;;;;;;19.71;79.42;97215.91;7615436;23;20519;-73
2022/08/14 05:53:01;;;;;;;8.60;7.73;;;;;;;19.86;78.72;97220.16;7590670;23;20216;-72
2022/08/14 05:56:03;;;;;;;9.53;8.63;;;;;;;20.09;78.29;97216.41;7590419;23;20672;-73
2022/08/14 05:59:05;;;;;;;8.40;7.60;;;;;;;20.32;77.01;97208.16;7589924;23;20209;-73
2022/08/14 06:02:09;;;;;;;8.97;8.17;;;;;;;20.76;74.81;97205.16;7613578;23;20525;-72
2022/08/14 06:05:12;;;;;;;8.57;7.77;;;;;;;20.66;75.38;97210.06;7590896;23;20212;-73
2022/08/14 06:08:28;;;;;;;8.07;7.37;;;;;;;20.74;74.97;97205.34;7589933;23;20212;-72
2022/08/14 06:11:42;;;;;;;7.87;7.17;;;;;;;20.69;74.92;97217.69;7592943;23;20219;-72
2022/08/14 06:14:44;;;;;;;7.67;6.97;;;;;;;20.69;74.61;97210.47;7588765;23;20208;-73
2022/08/14 06:17:50;;;;;;;9.00;8.10;;;;;;;20.61;74.48;97211.47;7623042;23;20216;-72
2022/08/14 06:20:59;;;;;;;9.23;8.43;;;;;;;20.61;74.28;97210.63;7614821;23;20236;-72
2022/08/14 06:24:03;;;;;;;8.77;7.93;;;;;;;20.66;74.24;97210.06;7588206;23;20215;-73
2022/08/14 06:27:11;;;;;;;9.27;8.47;;;;;;;20.63;74.02;97212.09;7614537;23;20181;-73
2022/08/14 06:30:19;;;;;;;9.73;8.83;;;;;;;20.61;74.48;97213.31;7589225;23;20191;-73
2022/08/14 06:33:23;;;;;;;9.60;8.70;;;;;;;20.55;74.46;97219.47;7587760;23;20286;-73
2022/08/14 06:36:45;;;;;;;10.87;9.83;;;;;;;20.43;74.51;97213.00;7589520;23;20215;-75
2022/08/14 06:39:47;;;;;;;10.00;9.00;;;;;;;20.39;74.87;97212.56;7590056;23;20218;-73
2022/08/14 06:42:51;;;;;;;10.00;8.67;;;;;;;20.43;74.94;97211.16;7615990;23;20209;-73
2022/08/14 06:45:55;;;;;;;9.57;8.60;;;;;;;20.51;74.51;97208.31;7614870;23;20216;-72
2022/08/14 06:48:58;;;;;;;9.30;8.47;;;;;;;20.56;74.63;97213.91;7615449;23;20205;-72
2022/08/14 06:52:00;;;;;;;9.77;8.97;;;;;;;20.68;74.14;97210.66;7588759;23;20209;-71
2022/08/14 06:55:04;;;;;;;9.37;8.47;;;;;;;20.63;74.21;97209.41;7614916;23;20208;-71
2022/08/14 06:58:13;;;;;;;8.90;8.10;;;;;;;20.67;73.90;97211.69;7616152;23;20212;-73
2022/08/14 07:08:29;;;;;;;9.55;8.75;;;;;;;21.11;72.58;97211.28;7613944;23;20495;-73
2022/08/14 07:11:33;;;;;;;8.93;8.13;;;;;;;21.22;72.02;97216.94;7587724;23;20470;-72
2022/08/14 07:14:36;;;;;;;10.37;9.33;;;;;;;21.13;72.09;97220.78;7589102;23;20248;-72
2022/08/14 07:17:49;;;;;;;9.20;8.40;;;;;;;21.04;72.31;97222.00;7588350;23;20684;-72
2022/08/14 07:20:54;;;;;;;9.03;8.10;;;;;;;21.02;72.53;97217.84;7612951;23;20683;-72
2022/08/14 07:23:56;;;;;;;8.97;8.20;;;;;;;21.16;72.30;97220.38;7615187;23;20216;-71
2022/08/14 07:26:59;;;;;;;9.63;8.67;;;;;;;21.26;71.75;97223.53;7589730;23;20216;-72
2022/08/14 07:30:03;;;;;;;9.70;8.80;;;;;;;21.31;71.13;97221.09;7588270;23;20660;-72
2022/08/14 07:33:11;;;;;;;10.17;9.17;;;;;;;21.32;70.69;97214.69;7589705;23;20555;-71
2022/08/14 07:36:15;;;;;;;10.63;9.53;;;;;;;21.32;70.93;97214.69;7614936;23;20513;-72
2022/08/14 07:39:31;;;;;;;9.07;8.23;;;;;;;21.33;70.23;97220.91;7591144;23;20743;-72
2022/08/14 07:42:35;;;;;;;8.83;8.03;;;;;;;21.28;71.14;97228.72;7622017;23;20540;-72
2022/08/14 07:45:42;;;;;;;9.20;8.50;;;;;;;21.45;70.43;97231.88;7589064;23;20343;-72
2022/08/14 07:48:51;;;;;;;9.23;8.33;;;;;;;21.63;69.71;97221.38;7613956;23;20216;-72
2022/08/14 07:51:53;;;;;;;8.93;8.10;;;;;;;21.59;69.19;97220.13;7614293;23;20332;-72
2022/08/14 07:54:56;;;;;;;9.13;8.33;;;;;;;21.49;69.63;97215.16;7614726;23;20680;-72
2022/08/14 07:57:58;;;;;;;10.47;9.47;;;;;;;21.51;69.88;97217.63;7614502;23;20212;-72
2022/08/14 08:01:06;;;;;;;8.83;8.00;;;;;;;21.50;69.39;97229.41;7589105;23;20232;-72
2022/08/14 08:04:10;;;;;;;9.23;8.33;;;;;;;21.31;69.70;97223.78;7592736;23;20216;-70
2022/08/14 08:07:20;;;;;;;9.33;8.50;;;;;;;21.40;69.45;97228.97;7617331;23;20527;-71
2022/08/14 08:10:30;;;;;;;8.90;7.90;;;;;;;21.44;69.54;97228.38;7591394;23;20215;-71
2022/08/14 08:13:57;;;;;;;8.00;7.20;;;;;;;21.41;69.46;97231.44;7623011;23;20562;-70
2022/08/14 08:17:00;;;;;;;8.33;7.63;;;;;;;21.39;69.05;97228.13;7591092;23;20220;-70
2022/08/14 08:20:02;;;;;;;8.93;8.03;;;;;;;21.31;69.44;97221.09;7591766;23;20266;-71
2022/08/14 08:23:05;;;;;;;9.57;8.63;;;;;;;21.28;69.38;97229.53;7591781;23;20240;-71
2022/08/14 08:26:07;;;;;;;9.50;8.60;;;;;;;21.21;69.89;97225.19;7617681;23;20244;-70
2022/08/14 08:29:18;;;;;;;8.60;7.87;;;;;;;21.23;69.58;97223.97;7618781;23;20212;-70
2022/08/14 08:32:26;;;;;;;8.70;7.90;;;;;;;21.44;68.95;97214.94;7616766;23;20589;-69
2022/08/14 08:35:34;;;;;;;8.48;7.68;;;;;;;22.11;66.86;97213.19;7588578;23;20413;-70
2022/08/14 08:38:49;;;;;;;8.77;7.97;;;;;;;21.94;67.01;97220.81;7616565;23;20677;-71
2022/08/14 08:42:11;;;;;;;8.85;8.05;;;;;;;22.14;66.37;97210.91;7595136;23;20420;-70
2022/08/14 08:45:16;;;;;;;7.93;7.23;;;;;;;22.36;65.56;97230.34;7615909;23;20200;-70
2022/08/14 08:48:20;;;;;;;8.07;7.37;;;;;;;22.54;65.21;97227.84;7616226;23;20176;-70
2022/08/14 08:51:38;;;;;;;8.47;7.73;;;;;;;22.79;64.29;97217.25;7616900;23;20209;-70
2022/08/14 08:54:53;;;;;;;8.60;7.73;;;;;;;23.20;62.89;97206.13;7589786;23;20295;-68
2022/08/14 08:58:07;;;;;;;8.67;7.97;;;;;;;23.33;61.97;97214.13;7615857;23;20735;-70
2022/08/14 09:01:28;;;;;;;8.87;8.07;;;;;;;23.11;62.40;97204.72;7592203;23;20219;-70
2022/08/14 09:05:01;;;;;;;9.40;8.50;;;;;;;22.94;63.21;97204.38;7468998;23;20731;-70
2022/08/14 09:08:18;;;;;;;8.43;7.73;;;;;;;22.87;63.11;97210.78;7445261;23;20247;-71
2022/08/14 09:11:33;;;;;;;8.87;8.07;;;;;;;22.85;63.55;97212.91;7469603;23;20270;-70
2022/08/14 09:14:37;;;;;;;8.17;7.37;;;;;;;22.97;63.15;97213.88;7422046;23;20211;-69
2022/08/14 09:17:42;;;;;;;8.67;7.67;;;;;;;23.23;62.41;97215.63;7446314;23;20215;-70
2022/08/14 09:20:50;;;;;;;8.60;7.80;;;;;;;23.64;61.56;97210.69;7468504;23;20218;-71
2022/08/14 09:23:55;;;;;;;8.33;7.63;;;;;;;24.05;60.72;97223.66;7466956;23;20237;-70
2022/08/14 09:27:17;;;;;;;8.47;7.67;;;;;;;25.25;58.41;97208.78;7464303;23;20199;-70
2022/08/14 09:30:24;;;;;;;8.97;7.83;;;;;;;25.12;57.27;97208.13;7468230;23;20214;-70
2022/08/14 09:34:07;;;;;;;8.57;7.87;;;;;;;25.00;56.21;97210.75;7466920;23;20708;-69
2022/08/14 09:37:43;;;;;;;9.40;8.43;;;;;;;25.43;56.65;97194.41;7466495;23;20226;-70
2022/08/14 09:41:03;;;;;;;9.23;8.52;;;;;;;26.36;53.11;97197.34;7488806;23;20413;-70
2022/08/14 09:44:17;;;;;;;9.23;8.32;;;;;;;26.13;53.01;97202.72;7611405;23;20805;-71
2022/08/14 09:47:43;;;;;;;8.20;7.53;;;;;;;25.93;52.97;97192.25;7587426;23;20588;-71
2022/08/14 09:50:49;;;;;;;9.18;8.38;;;;;;;25.69;53.75;97190.53;7587332;23;20219;-71
2022/08/14 09:54:05;;;;;;;9.15;8.35;;;;;;;25.44;53.98;97184.44;7613423;23;20205;-70
2022/08/14 09:57:27;;;;;;;8.52;7.82;;;;;;;25.40;54.81;97178.66;7613186;23;20778;-71
2022/08/14 10:00:55;;;;;;;8.60;7.35;;;;;;;25.42;54.94;97183.81;7564819;23;20275;-71
2022/08/14 10:03:59;;;;;;;7.68;7.07;;;;;;;25.55;54.09;97181.78;7612966;23;20223;-71
2022/08/14 10:07:04;;;;;;;8.13;7.43;;;;;;;25.74;54.10;97177.16;7614153;23;20212;-71
2022/08/14 10:10:06;;;;;;;8.55;7.85;;;;;;;25.78;53.84;97174.78;7614147;23;20240;-71
2022/08/14 10:13:25;;;;;;;9.05;8.25;;;;;;;25.63;53.30;97170.66;7589783;23;20213;-72
2022/08/14 10:16:47;;;;;;;9.02;8.23;;;;;;;25.42;54.10;97165.75;7593151;23;20551;-71
2022/08/14 10:19:51;;;;;;;9.15;8.32;;;;;;;25.40;53.96;97157.03;7611541;23;20293;-72
2022/08/14 10:23:12;;;;;;;8.43;7.63;;;;;;;25.33;54.31;97150.91;7614840;23;20240;-71
2022/08/14 10:26:18;;;;;;;8.73;7.93;;;;;;;25.42;53.97;97152.22;7615267;23;20519;-71
2022/08/14 10:29:34;;;;;;;8.82;8.02;;;;;;;25.46;53.63;97153.41;7613969;23;20213;-71
2022/08/14 10:32:45;;;;;;;9.60;8.20;;;;;;;25.43;54.07;97150.34;7613047;23;20212;-71
2022/08/14 10:35:53;;;;;;;8.23;7.55;;;;;;;25.24;53.85;97153.09;7609195;23;20220;-71
2022/08/14 10:38:57;;;;;;;9.20;8.35;;;;;;;25.16;54.55;97157.97;7614638;23;20267;-71
2022/08/14 10:42:05;;;;;;;8.43;7.72;;;;;;;25.23;54.91;97150.63;7613740;23;20208;-70
2022/08/14 10:45:22;;;;;;;8.77;7.90;;;;;;;25.36;54.49;97155.81;7612322;23;20208;-72
2022/08/14 10:48:25;;;;;;;8.85;8.05;;;;;;;25.41;53.88;97149.75;7620980;23;20408;-65
2022/08/14 10:51:41;;;;;;;9.00;8.10;;;;;;;25.60;53.47;97143.25;7614132;23;20691;-70
2022/08/14 10:54:45;;;;;;;7.93;7.22;;;;;;;25.88;53.21;97150.72;7586634;23;20540;-71
2022/08/14 10:57:53;;;;;;;9.52;8.60;;;;;;;25.93;52.20;97156.25;7613427;23;20215;-71
2022/08/14 11:00:58;;;;;;;8.45;7.60;;;;;;;25.82;52.67;97152.47;7587461;23;20479;-70
2022/08/14 11:04:01;;;;;;;9.15;8.23;;;;;;;25.89;52.90;97152.34;7611936;23;20208;-70
2022/08/14 11:07:13;;;;;;;8.75;7.95;;;;;;;25.78;53.01;97147.75;7613477;23;20232;-70
2022/08/14 11:10:46;;;;;;;9.82;8.82;;;;;;;25.19;54.03;97146.72;7613229;23;20349;-70
2022/08/14 11:13:49;;;;;;;8.45;7.68;;;;;;;25.23;54.90;97146.06;7610695;23;20263;-69
2022/08/14 11:16:53;;;;;;;8.48;7.40;;;;;;;25.32;54.63;97146.56;7611818;23;20236;-69
2022/08/14 11:19:58;;;;;;;8.55;7.82;;;;;;;25.32;54.41;97147.38;7612789;23;20222;-70
2022/08/14 11:23:00;;;;;;;10.05;8.80;;;;;;;25.11;55.03;97141.66;7613154;23;20555;-71
2022/08/14 11:26:07;;;;;;;8.57;7.70;;;;;;;25.06;54.78;97142.31;7613483;23;20227;-70
2022/08/14 11:29:11;;;;;;;8.32;7.57;;;;;;;25.06;54.45;97138.78;7613819;23;20420;-71
2022/08/14 11:32:14;;;;;;;8.77;7.65;;;;;;;25.15;54.66;97140.16;7612974;23;20672;-70
2022/08/14 11:35:20;;;;;;;8.90;8.10;;;;;;;25.16;54.16;97144.47;7587920;23;20212;-70
2022/08/14 11:38:22;;;;;;;8.77;7.88;;;;;;;25.16;54.28;97142.59;7583724;23;21038;-71
2022/08/14 11:41:27;;;;;;;9.13;8.23;;;;;;;25.18;54.17;97136.97;7580318;23;20889;-73
2022/08/14 11:44:33;;;;;;;8.20;7.50;;;;;;;25.28;53.96;97131.84;7609989;23;20220;-70
2022/08/14 11:47:47;;;;;;;8.10;7.40;;;;;;;25.46;53.46;97129.06;7613269;23;20240;-70
2022/08/14 11:51:22;;;;;;;8.18;7.28;;;;;;;25.76;52.93;97139.03;7611732;23;20216;-70
2022/08/14 11:54:25;;;;;;;8.30;7.60;;;;;;;25.93;52.79;97127.34;7587887;23;20244;-70
2022/08/14 11:57:36;;;;;;;8.60;7.90;;;;;;;26.40;52.24;97139.00;7588202;23;20552;-70
2022/08/14 12:00:52;;;;;;;8.93;8.02;;;;;;;26.87;51.03;97133.50;7587068;23;20217;-71
2022/08/14 12:04:06;;;;;;;7.63;6.93;;;;;;;27.99;48.52;97119.31;7611953;23;20664;-70
2022/08/14 12:07:08;;;;;;;8.30;7.50;;;;;;;28.57;46.80;97122.38;7610684;23;20275;-70
2022/08/14 12:10:11;;;;;;;8.38;7.40;;;;;;;28.88;45.51;97114.66;7571538;23;20484;-71
2022/08/14 12:13:32;;;;;;;8.40;7.70;;;;;;;28.86;45.48;97123.06;7585543;23;20486;-71
2022/08/14 12:16:35;;;;;;;8.70;7.85;;;;;;;28.70;45.45;97123.09;7562987;23;20687;-70
2022/08/14 12:19:55;;;;;;;7.82;7.13;;;;;;;29.27;44.15;97115.38;7614161;23;20418;-71
2022/08/14 12:22:59;;;;;;;7.82;7.22;;;;;;;29.97;42.64;97109.81;7586629;23;20220;-70
2022/08/14 12:26:09;;;;;;;7.60;6.90;;;;;;;29.86;42.25;97110.78;7612146;23;20216;-71
2022/08/14 12:29:31;;;;;;;7.07;6.43;;;;;;;29.31;43.50;97106.47;7611093;23;20220;-69
2022/08/14 12:32:45;;;;;;;7.50;6.82;;;;;;;29.31;43.57;97102.94;7613961;23;20673;-72
2022/08/14 12:35:50;;;;;;;7.88;7.10;;;;;;;29.83;42.57;97096.91;7587422;23;20416;-71
2022/08/14 12:39:16;;;;;;;7.07;6.45;;;;;;;30.56;41.47;97096.06;7612370;23;20212;-72
2022/08/14 12:42:19;;;;;;;7.40;6.78;;;;;;;31.20;40.33;97078.63;7613040;23;20217;-71
2022/08/14 12:45:35;;;;;;;7.25;6.65;;;;;;;31.50;38.95;97081.41;7613334;23;20762;-73
2022/08/14 12:48:45;;;;;;;6.55;5.95;;;;;;;32.22;37.78;97063.97;7589303;23;20232;-71
2022/08/14 12:52:00;;;;;;;7.30;6.65;;;;;;;31.55;37.86;97074.03;7615448;23;20216;-70
2022/08/14 12:55:05;;;;;;;7.93;7.18;;;;;;;30.58;39.91;97077.56;7615488;23;20236;-71
2022/08/14 12:58:09;;;;;;;6.93;6.32;;;;;;;30.88;39.59;97065.97;7615236;23;20588;-73
2022/08/14 13:01:55;;;;;;;7.18;6.57;;;;;;;31.65;38.00;97062.34;7614495;23;20672;-72
2022/08/14 13:05:04;;;;;;;7.47;6.80;;;;;;;31.61;37.59;97066.69;7528772;23;20220;-70
2022/08/14 13:08:08;;;;;;;6.68;6.03;;;;;;;31.01;38.95;97070.09;7576687;23;20209;-72
2022/08/14 13:11:51;;;;;;;6.47;5.95;;;;;;;30.95;38.31;97057.53;7572712;23;20292;-71
2022/08/14 13:15:14;;;;;;;7.40;6.07;;;;;;;31.30;38.65;97046.75;7554677;23;20783;-72
2022/08/14 13:18:16;;;;;;;6.65;6.05;;;;;;;31.35;37.70;97037.75;7574574;23;20202;-73
2022/08/14 13:21:19;;;;;;;7.07;5.70;;;;;;;30.99;38.09;97042.28;7576140;23;20225;-72
2022/08/14 13:24:23;;;;;;;6.38;5.78;;;;;;;30.85;37.80;97039.25;7576648;23;20792;-71
2022/08/14 13:27:31;;;;;;;6.20;5.70;;;;;;;30.95;38.36;97035.72;7552019;23;20212;-70
2022/08/14 13:30:44;;;;;;;6.13;5.63;;;;;;;31.01;37.90;97019.13;7575102;23;20738;-72
2022/08/14 13:33:46;;;;;;;6.55;5.93;;;;;;;31.72;36.10;97005.59;7575102;23;20268;-72
2022/08/14 13:36:50;;;;;;;7.70;6.50;;;;;;;32.29;34.72;96995.38;7609991;23;20412;-72
2022/08/14 13:40:04;;;;;;;5.82;5.32;;;;;;;32.75;34.18;97010.50;7615902;23;20216;-74
2022/08/14 13:43:07;;;;;;;6.00;5.50;;;;;;;33.50;32.18;96997.47;7589691;23;20219;-74
2022/08/14 13:46:10;;;;;;;6.88;5.80;;;;;;;34.45;30.00;97005.03;7589192;23;20224;-74
2022/08/14 13:49:12;;;;;;;6.88;6.10;;;;;;;35.69;29.04;96993.66;7616630;23;20247;-73
2022/08/14 13:52:19;;;;;;;6.63;5.78;;;;;;;35.66;28.08;96998.94;7589565;23;20215;-70
2022/08/14 13:55:43;;;;;;;6.32;5.50;;;;;;;32.52;32.73;96989.28;7588797;23;20244;-71
2022/08/14 13:58:57;;;;;;;6.97;5.75;;;;;;;33.19;32.31;96980.44;7609221;23;20212;-71
2022/08/14 14:02:05;;;;;;;6.97;6.25;;;;;;;32.13;33.59;96979.03;7586833;23;20267;-67
2022/08/14 14:05:12;;;;;;;6.20;5.40;;;;;;;31.62;35.25;96972.00;7566734;23;20212;-71
2022/08/14 14:08:19;;;;;;;6.50;5.88;;;;;;;34.51;31.38;96973.72;7585773;23;20695;-70
2022/08/14 14:11:42;;;;;;;7.30;6.60;;;;;;;35.68;28.71;96970.06;7613745;23;20680;-70
2022/08/14 14:14:45;;;;;;;6.32;5.82;;;;;;;34.89;30.03;96965.56;7613717;23;20271;-70
2022/08/14 14:17:58;;;;;;;6.53;5.82;;;;;;;32.23;34.55;96967.28;7612979;23;20220;-71
2022/08/14 14:21:01;;;;;;;7.63;6.65;;;;;;;33.97;32.33;96969.38;7614963;23;20724;-70
2022/08/14 14:24:04;;;;;;;6.55;5.85;;;;;;;37.33;26.70;96967.28;7588589;23;20201;-71
2022/08/14 14:27:08;;;;;;;6.28;5.68;;;;;;;40.06;23.45;96966.66;7588395;23;20192;-71
2022/08/14 14:30:32;;;;;;;6.97;6.38;;;;;;;41.49;20.63;96952.59;7614249;23;20212;-70
2022/08/14 14:34:03;;;;;;;5.75;5.25;;;;;;;41.96;20.86;96947.56;7615644;23;20224;-70
2022/08/14 14:37:14;;;;;;;6.22;5.70;;;;;;;42.91;19.81;96954.66;7612802;23;20212;-71
2022/08/14 14:40:16;;;;;;;6.43;5.80;;;;;;;43.36;18.89;96948.06;7588302;23;20212;-72
2022/08/14 14:43:43;;;;;;;5.72;5.05;;;;;;;43.23;19.51;96938.97;7589986;23;20217;-71
2022/08/14 14:46:49;;;;;;;5.70;5.20;;;;;;;43.19;19.49;96932.50;7614276;23;20244;-72
2022/08/14 14:49:55;;;;;;;5.70;5.20;;;;;;;42.81;19.90;96932.94;7612724;23;20223;-72
2022/08/14 14:52:57;;;;;;;6.45;5.80;;;;;;;42.49;19.99;96922.78;7613200;23;20208;-71
2022/08/14 14:56:14;;;;;;;5.90;5.30;;;;;;;42.69;19.37;96927.38;7610420;23;20677;-71
2022/08/14 14:59:36;;;;;;;6.13;5.22;;;;;;;43.23;18.78;96924.25;7585949;23;20551;-72
2022/08/14 15:02:44;;;;;;;5.70;5.20;;;;;;;43.90;18.48;96922.56;7610501;23;20219;-71
2022/08/14 15:05:52;;;;;;;5.70;5.20;;;;;;;43.36;18.48;96932.19;7589488;23;20216;-71
2022/08/14 15:08:56;;;;;;;6.15;5.43;;;;;;;43.57;18.78;96922.88;7586521;23;20220;-71